createdAt,value
2019-03-09T00:05:01.688Z,4.40
2019-03-09T00:11:03.990Z,4.40
2019-03-09T00:17:06.256Z,4.30
2019-03-09T00:23:22.663Z,4.40
2019-03-09T00:29:29.674Z,4.60
2019-03-09T00:35:32.300Z,4.70
2019-03-09T00:41:34.452Z,4.70
2019-03-09T00:47:36.783Z,4.90
2019-03-09T00:53:39.108Z,5.00
2019-03-09T00:59:41.373Z,4.90
2019-03-09T01:05:44.704Z,4.80
2019-03-09T01:11:46.968Z,4.70
2019-03-09T01:17:49.346Z,4.70
2019-03-09T01:23:51.611Z,4.60
2019-03-09T01:29:53.854Z,4.50
2019-03-09T01:35:56.962Z,4.50
2019-03-09T01:41:59.252Z,4.40
2019-03-09T01:48:01.521Z,4.40
2019-03-09T01:54:03.686Z,4.20
2019-03-09T02:00:06.993Z,4.20
2019-03-09T02:06:10.357Z,4.20
2019-03-09T02:12:14.703Z,4.10
2019-03-09T02:18:17.027Z,4.00
2019-03-09T02:24:19.208Z,4.00
2019-03-09T02:30:21.507Z,3.90
2019-03-09T02:36:24.094Z,3.90
2019-03-09T02:42:26.633Z,3.70
2019-03-09T02:48:28.903Z,3.60
2019-03-09T02:54:31.066Z,3.60
2019-03-09T03:00:35.333Z,3.50
2019-03-09T03:06:37.686Z,3.40
2019-03-09T03:12:39.864Z,3.30
2019-03-09T03:18:42.060Z,3.30
2019-03-09T03:24:44.443Z,3.20
2019-03-09T03:30:46.641Z,3.20
2019-03-09T03:36:49.986Z,3.10
2019-03-09T03:42:52.179Z,3.00
2019-03-09T03:48:54.344Z,2.90
2019-03-09T03:54:56.505Z,2.90
2019-03-09T04:00:58.712Z,3.00
2019-03-09T04:07:01.465Z,3.00
2019-03-09T04:13:03.658Z,3.00
2019-03-09T04:19:06.011Z,3.00
2019-03-09T04:25:08.278Z,3.00
2019-03-09T04:31:10.641Z,2.80
2019-03-09T04:37:12.789Z,2.60
2019-03-09T04:43:15.249Z,2.60
2019-03-09T04:49:17.496Z,2.60
2019-03-09T04:55:19.794Z,2.50
2019-03-09T05:01:22.051Z,2.50
2019-03-09T05:07:41.359Z,2.70
2019-03-09T05:14:05.245Z,2.80
2019-03-09T05:20:07.468Z,3.00
2019-03-09T05:26:10.839Z,3.20
2019-03-09T05:32:13.196Z,3.30
2019-03-09T05:38:15.437Z,3.40
2019-03-09T05:44:18.598Z,3.40
2019-03-09T05:50:20.828Z,3.50
2019-03-09T05:56:23.086Z,3.70
2019-03-09T06:02:25.328Z,3.90
2019-03-09T06:08:28.728Z,4.00
2019-03-09T06:14:31.199Z,4.10
2019-03-09T06:20:35.467Z,4.30
2019-03-09T06:26:38.723Z,4.40
2019-03-09T06:33:16.223Z,4.60
2019-03-09T06:39:23.802Z,4.70
2019-03-09T06:45:27.950Z,4.80
2019-03-09T06:51:30.231Z,4.90
2019-03-09T06:57:32.613Z,5.10
2019-03-09T07:03:34.879Z,5.10
2019-03-09T07:09:37.223Z,5.20
2019-03-09T07:15:43.758Z,5.30
2019-03-09T07:21:47.047Z,5.30
2019-03-09T07:28:04.243Z,5.70
2019-03-09T07:34:23.209Z,6.40
2019-03-09T07:40:26.552Z,7.00
2019-03-09T07:46:29.019Z,7.30
2019-03-09T07:52:33.395Z,7.60
2019-03-09T07:58:36.645Z,7.90
2019-03-09T08:04:40.874Z,8.40
2019-03-09T08:10:43.051Z,8.70
2019-03-09T08:16:47.821Z,8.80
2019-03-09T08:22:51.180Z,9.00
2019-03-09T08:28:55.495Z,9.20
2019-03-09T08:34:57.629Z,9.40
2019-03-09T08:40:59.807Z,9.30
2019-03-09T08:47:03.259Z,9.30
2019-03-09T08:53:05.417Z,9.50
2019-03-09T08:59:07.569Z,9.60
2019-03-09T09:05:09.927Z,9.60
2019-03-09T09:11:12.348Z,9.60
2019-03-09T09:17:14.611Z,9.70
2019-03-09T09:23:16.772Z,9.60
2019-03-09T09:29:18.994Z,9.80
2019-03-09T09:35:21.442Z,9.70
2019-03-09T09:41:23.654Z,9.50
2019-03-09T09:47:26.091Z,9.40
2019-03-09T09:53:28.307Z,9.40
2019-03-09T09:59:30.475Z,9.30
2019-03-09T10:05:32.886Z,9.30
2019-03-09T10:11:35.032Z,9.30
2019-03-09T10:17:38.300Z,9.30
2019-03-09T10:23:41.983Z,9.30
2019-03-09T10:29:44.128Z,9.20
2019-03-09T10:35:46.432Z,9.30
2019-03-09T10:41:48.648Z,9.40
2019-03-09T10:47:51.200Z,9.50
2019-03-09T10:53:53.644Z,9.60
2019-03-09T10:59:55.783Z,9.80
2019-03-09T11:05:58.080Z,10.00
2019-03-09T11:12:00.276Z,10.00
2019-03-09T11:18:02.451Z,10.00
2019-03-09T11:24:04.669Z,10.00
2019-03-09T11:30:10.756Z,10.20
2019-03-09T11:36:12.982Z,10.40
2019-03-09T11:42:15.360Z,11.00
2019-03-09T11:48:17.671Z,11.30
2019-03-09T11:54:20.008Z,11.50
2019-03-09T12:00:24.163Z,11.70
2019-03-09T12:06:26.354Z,11.80
2019-03-09T12:12:28.649Z,12.10
2019-03-09T12:18:30.728Z,12.30
2019-03-09T12:24:33.109Z,12.30
2019-03-09T12:30:35.439Z,12.50
2019-03-09T12:36:37.781Z,12.50
2019-03-09T12:42:40.016Z,12.60
2019-03-09T12:48:42.234Z,13.10
2019-03-09T12:54:44.378Z,13.60
2019-03-09T13:00:46.794Z,13.90
2019-03-09T13:06:48.957Z,14.10
2019-03-09T13:12:51.227Z,14.10
2019-03-09T13:18:53.475Z,14.10
2019-03-09T13:24:55.873Z,14.00
2019-03-09T13:30:58.142Z,13.90
2019-03-09T13:37:02.988Z,14.10
2019-03-09T13:43:06.114Z,14.40
2019-03-09T13:49:08.369Z,14.50
2019-03-09T13:55:12.095Z,14.50
2019-03-09T14:01:14.372Z,14.40
2019-03-09T14:07:16.685Z,14.30
2019-03-09T14:13:18.858Z,14.10
2019-03-09T14:19:21.167Z,13.90
2019-03-09T14:25:24.474Z,13.70
2019-03-09T14:31:26.965Z,13.70
2019-03-09T14:37:29.179Z,13.50
2019-03-09T14:43:32.574Z,13.40
2019-03-09T14:49:34.856Z,13.20
2019-03-09T14:55:37.263Z,13.20
2019-03-09T15:01:39.528Z,13.20
2019-03-09T15:07:41.868Z,13.10
2019-03-09T15:13:44.053Z,13.10
2019-03-09T15:19:46.272Z,13.00
2019-03-09T15:25:48.639Z,13.10
2019-03-09T15:31:50.879Z,13.00
2019-03-09T15:37:53.175Z,13.00
2019-03-09T15:43:55.430Z,13.00
2019-03-09T15:49:57.616Z,13.10
2019-03-09T15:55:59.823Z,13.00
2019-03-09T16:02:12.293Z,12.90
2019-03-09T16:08:14.729Z,12.80
2019-03-09T16:14:17.011Z,12.60
2019-03-09T16:20:19.256Z,12.50
2019-03-09T16:26:21.497Z,12.40
2019-03-09T16:32:23.711Z,12.30
2019-03-09T16:38:27.066Z,12.10
2019-03-09T16:44:29.320Z,12.00
2019-03-09T16:50:31.632Z,12.00
2019-03-09T16:56:35.218Z,11.90
2019-03-09T17:02:37.377Z,11.80
2019-03-09T17:08:39.536Z,11.80
2019-03-09T17:14:41.829Z,11.70
2019-03-09T17:20:44.293Z,11.70
2019-03-09T17:26:46.533Z,11.60
2019-03-09T17:32:48.889Z,11.50
2019-03-09T17:38:51.087Z,11.30
2019-03-09T17:44:53.315Z,11.10
2019-03-09T17:50:55.695Z,10.90
2019-03-09T17:56:58.090Z,10.60
2019-03-09T18:03:00.398Z,10.40
2019-03-09T18:09:04.682Z,10.30
2019-03-09T18:15:07.364Z,10.20
2019-03-09T18:21:09.591Z,10.20
2019-03-09T18:27:12.277Z,10.10
2019-03-09T18:33:15.638Z,10.10
2019-03-09T18:39:19.505Z,10.10
2019-03-09T18:45:21.679Z,10.10
2019-03-09T18:51:23.917Z,10.10
2019-03-09T18:57:26.279Z,10.10
2019-03-09T19:03:28.858Z,10.00
2019-03-09T19:09:31.031Z,10.00
2019-03-09T19:15:33.396Z,10.10
2019-03-09T19:21:35.646Z,10.30
2019-03-09T19:27:37.914Z,10.50
2019-03-09T19:33:40.226Z,10.70
2019-03-09T19:39:42.578Z,10.90
2019-03-09T19:45:45.058Z,11.10
2019-03-09T19:51:47.303Z,11.10
2019-03-09T19:57:49.474Z,11.30
2019-03-09T20:03:51.939Z,11.50
2019-03-09T20:09:54.201Z,11.60
2019-03-09T20:15:56.419Z,11.60
2019-03-09T20:21:58.751Z,11.70
2019-03-09T20:28:01.139Z,11.70
2019-03-09T20:34:03.538Z,11.80
2019-03-09T20:40:07.067Z,11.90
2019-03-09T20:46:09.403Z,11.90
2019-03-09T20:52:12.765Z,11.90
2019-03-09T20:58:15.260Z,12.00
2019-03-09T21:04:17.733Z,12.00
2019-03-09T21:10:20.288Z,12.00
2019-03-09T21:16:22.550Z,12.10
2019-03-09T21:22:24.839Z,12.00
2019-03-09T21:28:27.512Z,11.90
2019-03-09T21:34:29.987Z,11.90
2019-03-09T21:40:32.284Z,11.80
2019-03-09T21:46:34.567Z,11.80
2019-03-09T21:52:36.823Z,11.80
2019-03-09T21:58:38.989Z,11.80
2019-03-09T22:04:41.409Z,11.70
2019-03-09T22:10:43.859Z,11.70
2019-03-09T22:16:55.963Z,11.70
2019-03-09T22:22:50.162Z,11.80
2019-03-09T22:28:52.560Z,11.90
2019-03-09T22:34:55.067Z,12.00
2019-03-09T22:40:57.387Z,12.00
2019-03-09T22:46:59.663Z,12.10
2019-03-09T22:53:01.848Z,12.20
2019-03-09T22:59:04.036Z,12.10
2019-03-09T23:05:07.770Z,12.00
2019-03-09T23:11:10.276Z,11.90
2019-03-09T23:17:12.491Z,11.90
2019-03-09T23:23:14.812Z,11.70
2019-03-09T23:29:17.112Z,11.70
2019-03-09T23:35:20.131Z,11.70
2019-03-09T23:41:22.659Z,11.60
2019-03-09T23:47:24.883Z,11.60
2019-03-09T23:53:27.220Z,11.70
2019-03-09T23:59:29.596Z,11.90
